Time;durP1;ratioP1;P1;durP2;ratioP2;P2;SDS_P1;SDS_P2;PMS_P1;PMS_P2;Temp;Humidity;BMP_temperature;BMP_pressure;BME280_temperature;BME280_humidity;BME280_pressure;Samples;Min_cycle;Max_cycle;Signal;HPM_P1;HPM_P2
2022/04/22 00:00:30;;;;;;;;;;;;;;;;;;2575245;23;19916;-79
2022/04/22 00:01:30;;;;;;;;;;;;;;;;;;2571246;23;19978;-79
2022/04/22 00:02:31;;;;;;;;;;;;;;;;;;2575282;23;19915;-79
2022/04/22 00:03:31;;;;;;;;;;;;;;;;;;2575383;23;19969;-79
2022/04/22 00:04:31;;;;;;;;;;;;;;;;;;2575341;23;20297;-79
2022/04/22 00:05:39;;;;;;;;;;;;;;;;;;2573325;23;19916;-79
2022/04/22 00:06:40;;;;;;;;;;;;;;;;;;2575281;23;19908;-79
2022/04/22 00:07:40;;;;;;;;;;;;;;;;;;2575311;23;19907;-79
2022/04/22 00:08:40;;;;;;;;;;;;;;;;;;2571369;23;19908;-79
2022/04/22 00:09:40;;;;;;;;;;;;;;;;;;2558179;23;20335;-79
2022/04/22 00:11:29;;;;;;;;;;;;;;;;;;2558111;23;19920;-78
2022/04/22 00:12:01;;;;;;;;;;;;;;;;;;2570741;23;19965;-78
2022/04/22 00:13:07;;;;;;;;;;;;;;;;;;2570503;23;20320;-79
2022/04/22 00:14:07;;;;;;;;;;;;;;;;;;2571740;23;19912;-79
2022/04/22 00:15:08;;;;;;;;;;;;;;;;;;2587482;23;20303;-78
2022/04/22 00:16:08;;;;;;;;;;;;;;;;;;2575383;23;19991;-78
2022/04/22 00:17:09;;;;;;;;;;;;;;;;;;2575244;23;20430;-78
2022/04/22 00:18:10;;;;;;;;;;;;;;;;;;2575175;23;19998;-79
2022/04/22 00:19:10;;;;;;;;;;;;;;;;;;2570237;23;20227;-77
2022/04/22 00:20:11;;;;;;;;;;;;;;;;;;2574720;23;19908;-79
2022/04/22 00:21:11;;;;;;;;;;;;;;;;;;2570840;23;19919;-79
2022/04/22 00:22:11;;;;;;;;;;;;;;;;;;2574767;23;19907;-79
2022/04/22 00:23:12;;;;;;;;;;;;;;;;;;2575296;23;20356;-79
2022/04/22 00:24:13;;;;;;;;;;;;;;;;;;2575366;23;20232;-79
2022/04/22 00:25:13;;;;;;;;;;;;;;;;;;2575267;23;19911;-79
2022/04/22 00:26:14;;;;;;;;;;;;;;;;;;2575210;23;20220;-79
2022/04/22 00:27:14;;;;;;;;;;;;;;;;;;2575320;23;19912;-79
2022/04/22 00:28:17;;;;;;;;;;;;;;;;;;2575183;23;20274;-79
2022/04/22 00:29:17;;;;;;;;;;;;;;;;;;2570222;23;19912;-79
2022/04/22 00:30:17;;;;;;;;;;;;;;;;;;2574525;23;20299;-79
2022/04/22 00:31:18;;;;;;;;;;;;;;;;;;2575246;23;19935;-79
2022/04/22 00:32:18;;;;;;;;;;;;;;;;;;2575321;23;20282;-79
2022/04/22 00:33:18;;;;;;;;;;;;;;;;;;2574985;23;19923;-79
2022/04/22 00:34:18;;;;;;;;;;;;;;;;;;2575234;23;19908;-79
2022/04/22 00:35:19;;;;;;;;;;;;;;;;;;2575062;23;19908;-79
2022/04/22 00:36:19;;;;;;;;;;;;;;;;;;2575211;23;20506;-79
2022/04/22 00:37:19;;;;;;;;;;;;;;;;;;2575112;23;19947;-79
2022/04/22 00:38:19;;;;;;;;;;;;;;;;;;2575043;23;20224;-79
2022/04/22 00:39:20;;;;;;;;;;;;;;;;;;2575161;23;19922;-79
2022/04/22 00:40:20;;;;;;;;;;;;;;;;;;2574433;23;20368;-79
2022/04/22 00:41:20;;;;;;;;;;;;;;;;;;2569820;23;19944;-79
2022/04/22 00:42:21;;;;;;;;;;;;;;;;;;2574642;23;19923;-79
2022/04/22 00:43:22;;;;;;;;;;;;;;;;;;2575214;23;19908;-79
2022/04/22 00:44:23;;;;;;;;;;;;;;;;;;2575255;23;19977;-79
2022/04/22 00:45:25;;;;;;;;;;;;;;;;;;2570432;23;19967;-80
2022/04/22 00:46:25;;;;;;;;;;;;;;;;;;2574509;23;19911;-79
2022/04/22 00:47:26;;;;;;;;;;;;;;;;;;2575197;23;19960;-79
2022/04/22 00:48:26;;;;;;;;;;;;;;;;;;2570180;23;20324;-79
2022/04/22 00:49:26;;;;;;;;;;;;;;;;;;2570267;23;19908;-79
2022/04/22 00:50:27;;;;;;;;;;;;;;;;;;2558073;23;19919;-79
2022/04/22 00:51:27;;;;;;;;;;;;;;;;;;2574443;23;20339;-79
2022/04/22 00:52:27;;;;;;;;;;;;;;;;;;2570332;23;19939;-79
2022/04/22 00:53:28;;;;;;;;;;;;;;;;;;2574393;23;20327;-80
2022/04/22 00:54:30;;;;;;;;;;;;;;;;;;2570059;23;19908;-80
2022/04/22 00:55:31;;;;;;;;;;;;;;;;;;2557844;23;19918;-79
2022/04/22 00:56:31;;;;;;;;;;;;;;;;;;2557893;23;19908;-80
2022/04/22 00:57:32;;;;;;;;;;;;;;;;;;2574367;23;19908;-79
2022/04/22 00:58:35;;;;;;;;;;;;;;;;;;2570253;23;19908;-79
2022/04/22 00:59:36;;;;;;;;;;;;;;;;;;2574575;23;20294;-79
2022/04/22 01:00:37;;;;;;;;;;;;;;;;;;2569628;23;19918;-79
2022/04/22 01:01:38;;;;;;;;;;;;;;;;;;2569687;23;20314;-79
2022/04/22 01:02:38;;;;;;;;;;;;;;;;;;2574620;23;20306;-79
2022/04/22 01:10:16;;;;;;;;;;;;;;;;;;2575094;23;19908;-80
2022/04/22 01:11:16;;;;;;;;;;;;;;;;;;2575063;23;19911;-79
2022/04/22 01:12:17;;;;;;;;;;;;;;;;;;2574923;23;19942;-80
2022/04/22 01:13:18;;;;;;;;;;;;;;;;;;2570025;23;19958;-79
2022/04/22 01:14:18;;;;;;;;;;;;;;;;;;2570700;23;19908;-79
2022/04/22 01:15:18;;;;;;;;;;;;;;;;;;2575095;23;20292;-80
2022/04/22 01:16:19;;;;;;;;;;;;;;;;;;2570050;23;19912;-80
2022/04/22 01:17:20;;;;;;;;;;;;;;;;;;2574544;23;19942;-79
2022/04/22 01:18:22;;;;;;;;;;;;;;;;;;2571119;23;19908;-79
2022/04/22 01:19:23;;;;;;;;;;;;;;;;;;2574833;23;19982;-80
2022/04/22 01:20:23;;;;;;;;;;;;;;;;;;2575087;23;19912;-79
2022/04/22 01:21:23;;;;;;;;;;;;;;;;;;2574943;23;19943;-79
2022/04/22 01:22:24;;;;;;;;;;;;;;;;;;2574943;23;20287;-80
2022/04/22 01:23:24;;;;;;;;;;;;;;;;;;2575036;23;19919;-80
2022/04/22 01:24:25;;;;;;;;;;;;;;;;;;2574864;23;19979;-80
2022/04/22 01:25:26;;;;;;;;;;;;;;;;;;2574918;23;19918;-80
2022/04/22 01:26:26;;;;;;;;;;;;;;;;;;2575013;23;20242;-79
2022/04/22 01:27:29;;;;;;;;;;;;;;;;;;2575008;23;19908;-80
2022/04/22 01:28:30;;;;;;;;;;;;;;;;;;2570044;23;19908;-79
2022/04/22 01:29:31;;;;;;;;;;;;;;;;;;2570088;23;19912;-80
2022/04/22 01:30:31;;;;;;;;;;;;;;;;;;2574455;23;19908;-79
2022/04/22 01:31:32;;;;;;;;;;;;;;;;;;2574984;23;19914;-79
2022/04/22 01:32:32;;;;;;;;;;;;;;;;;;2574986;23;19908;-79
2022/04/22 01:33:32;;;;;;;;;;;;;;;;;;2574853;23;20331;-79
2022/04/22 01:34:33;;;;;;;;;;;;;;;;;;2574994;23;19922;-80
2022/04/22 01:35:33;;;;;;;;;;;;;;;;;;2574984;23;20383;-80
2022/04/22 01:36:34;;;;;;;;;;;;;;;;;;2575016;23;19912;-80
2022/04/22 01:37:34;;;;;;;;;;;;;;;;;;2574953;23;20244;-79
2022/04/22 01:38:37;;;;;;;;;;;;;;;;;;2569953;23;19919;-79
2022/04/22 01:39:37;;;;;;;;;;;;;;;;;;2570516;23;19942;-79
2022/04/22 01:40:37;;;;;;;;;;;;;;;;;;2582744;23;19908;-79
2022/04/22 01:41:37;;;;;;;;;;;;;;;;;;2587012;23;20427;-79
2022/04/22 01:42:40;;;;;;;;;;;;;;;;;;2575089;23;19919;-79
2022/04/22 01:43:41;;;;;;;;;;;;;;;;;;2574892;23;19919;-79
2022/04/22 01:44:41;;;;;;;;;;;;;;;;;;2570200;23;19908;-79
2022/04/22 01:45:44;;;;;;;;;;;;;;;;;;2570071;23;20295;-80
2022/04/22 01:46:45;;;;;;;;;;;;;;;;;;2570081;23;19960;-79
2022/04/22 01:47:45;;;;;;;;;;;;;;;;;;2574353;23;19986;-79
2022/04/22 01:48:45;;;;;;;;;;;;;;;;;;2569956;23;20093;-79
2022/04/22 01:49:45;;;;;;;;;;;;;;;;;;2574212;23;19936;-79
2022/04/22 01:50:46;;;;;;;;;;;;;;;;;;2582536;23;19914;-78
2022/04/22 01:51:46;;;;;;;;;;;;;;;;;;2586770;23;19953;-79
2022/04/22 01:52:46;;;;;;;;;;;;;;;;;;2569942;23;19949;-79
2022/04/22 01:53:47;;;;;;;;;;;;;;;;;;2574154;23;20238;-79
2022/04/22 01:54:50;;;;;;;;;;;;;;;;;;2574855;23;19908;-79
2022/04/22 01:56:08;;;;;;;;;;;;;;;;;;2570149;23;19924;-78
2022/04/22 01:57:08;;;;;;;;;;;;;;;;;;2574448;23;19923;-79
2022/04/22 01:58:08;;;;;;;;;;;;;;;;;;2569959;23;20362;-78
2022/04/22 01:59:09;;;;;;;;;;;;;;;;;;2574394;23;19966;-79
2022/04/22 02:00:12;;;;;;;;;;;;;;;;;;2574897;23;19912;-79
2022/04/22 02:01:12;;;;;;;;;;;;;;;;;;2574953;23;19919;-79
2022/04/22 02:02:15;;;;;;;;;;;;;;;;;;2569874;23;19908;-79
2022/04/22 02:03:15;;;;;;;;;;;;;;;;;;2574366;23;20032;-78
2022/04/22 02:04:16;;;;;;;;;;;;;;;;;;2574823;23;20334;-79
2022/04/22 02:05:16;;;;;;;;;;;;;;;;;;2570083;23;19915;-78
2022/04/22 02:06:16;;;;;;;;;;;;;;;;;;2557311;23;19912;-78
2022/04/22 02:07:16;;;;;;;;;;;;;;;;;;2574257;23;19919;-79
2022/04/22 02:08:17;;;;;;;;;;;;;;;;;;2569916;23;19911;-79
2022/04/22 02:09:17;;;;;;;;;;;;;;;;;;2574128;23;19919;-79
2022/04/22 02:10:17;;;;;;;;;;;;;;;;;;2574794;23;19922;-79
2022/04/22 02:11:18;;;;;;;;;;;;;;;;;;2574687;23;19908;-79
2022/04/22 02:12:18;;;;;;;;;;;;;;;;;;2570033;23;19908;-79
2022/04/22 02:13:20;;;;;;;;;;;;;;;;;;2574134;23;19916;-78
2022/04/22 02:14:21;;;;;;;;;;;;;;;;;;2569983;23;20007;-78
2022/04/22 02:15:21;;;;;;;;;;;;;;;;;;2574260;23;19908;-78
2022/04/22 02:16:21;;;;;;;;;;;;;;;;;;2570029;23;19914;-79
2022/04/22 02:17:22;;;;;;;;;;;;;;;;;;2570541;23;19908;-78
2022/04/22 02:18:22;;;;;;;;;;;;;;;;;;2569819;23;20014;-79
2022/04/22 02:19:22;;;;;;;;;;;;;;;;;;2574295;23;19925;-79
2022/04/22 02:20:22;;;;;;;;;;;;;;;;;;2574776;23;19912;-79
2022/04/22 02:21:23;;;;;;;;;;;;;;;;;;2574761;23;20398;-79
2022/04/22 02:22:23;;;;;;;;;;;;;;;;;;2574815;23;19994;-79
2022/04/22 02:23:23;;;;;;;;;;;;;;;;;;2574810;23;19969;-79
2022/04/22 02:24:24;;;;;;;;;;;;;;;;;;2569884;23;19912;-79
2022/04/22 02:25:24;;;;;;;;;;;;;;;;;;2574266;23;19908;-79
2022/04/22 02:26:27;;;;;;;;;;;;;;;;;;2574783;23;19912;-79
2022/04/22 02:28:49;;;;;;;;;;;;;;;;;;2574165;23;19908;-79
2022/04/22 02:29:49;;;;;;;;;;;;;;;;;;2574624;23;19948;-79
2022/04/22 02:30:50;;;;;;;;;;;;;;;;;;2569899;23;19908;-79
2022/04/22 02:31:53;;;;;;;;;;;;;;;;;;2574102;23;19912;-79
2022/04/22 02:32:53;;;;;;;;;;;;;;;;;;2569924;23;20385;-79
2022/04/22 02:33:54;;;;;;;;;;;;;;;;;;2574171;23;19922;-79
2022/04/22 02:34:54;;;;;;;;;;;;;;;;;;2574980;23;20459;-79
2022/04/22 02:35:54;;;;;;;;;;;;;;;;;;2574708;23;19919;-79
2022/04/22 02:36:57;;;;;;;;;;;;;;;;;;2575092;23;19922;-79
2022/04/22 02:37:57;;;;;;;;;;;;;;;;;;2574596;23;20325;-79
2022/04/22 02:38:58;;;;;;;;;;;;;;;;;;2569821;23;19908;-78
2022/04/22 02:39:58;;;;;;;;;;;;;;;;;;2574106;23;20328;-78
2022/04/22 02:46:33;;;;;;;;;;;;;;;;;;2557113;23;19912;-79
2022/04/22 02:47:34;;;;;;;;;;;;;;;;;;2544732;23;19908;-79
2022/04/22 02:48:34;;;;;;;;;;;;;;;;;;2548786;23;19923;-79
2022/04/22 02:49:34;;;;;;;;;;;;;;;;;;2558740;23;20312;-79
2022/04/22 02:50:35;;;;;;;;;;;;;;;;;;2561109;23;19943;-79
2022/04/22 02:51:37;;;;;;;;;;;;;;;;;;2557310;23;19923;-79
2022/04/22 02:52:40;;;;;;;;;;;;;;;;;;2573406;23;19987;-79
2022/04/22 02:53:41;;;;;;;;;;;;;;;;;;2568933;23;20061;-79
2022/04/22 02:54:41;;;;;;;;;;;;;;;;;;2573978;23;20220;-79
2022/04/22 02:55:50;;;;;;;;;;;;;;;;;;2574725;23;19979;-79
2022/04/22 02:56:53;;;;;;;;;;;;;;;;;;2569917;23;20310;-79
2022/04/22 02:57:53;;;;;;;;;;;;;;;;;;2574094;23;19908;-79
2022/04/22 02:58:56;;;;;;;;;;;;;;;;;;2574482;23;20220;-79
2022/04/22 02:59:57;;;;;;;;;;;;;;;;;;2574590;23;19973;-79
2022/04/22 03:00:57;;;;;;;;;;;;;;;;;;2574631;23;19970;-79
2022/04/22 03:01:57;;;;;;;;;;;;;;;;;;2569796;23;19908;-79
2022/04/22 03:02:58;;;;;;;;;;;;;;;;;;2574138;23;19943;-79
2022/04/22 03:04:00;;;;;;;;;;;;;;;;;;2574579;23;19954;-79
2022/04/22 03:05:01;;;;;;;;;;;;;;;;;;2574523;23;20301;-79
2022/04/22 03:06:01;;;;;;;;;;;;;;;;;;2569714;23;19907;-79
2022/04/22 03:07:02;;;;;;;;;;;;;;;;;;2569771;23;20632;-80
2022/04/22 03:08:02;;;;;;;;;;;;;;;;;;2573923;23;19963;-79
2022/04/22 03:09:03;;;;;;;;;;;;;;;;;;2569892;23;19974;-79
2022/04/22 03:10:06;;;;;;;;;;;;;;;;;;2574039;23;19923;-79
2022/04/22 03:11:07;;;;;;;;;;;;;;;;;;2574405;23;19908;-79
2022/04/22 03:12:08;;;;;;;;;;;;;;;;;;2570567;23;20247;-79
2022/04/22 03:13:08;;;;;;;;;;;;;;;;;;2569605;23;19908;-79
2022/04/22 03:14:08;;;;;;;;;;;;;;;;;;2573921;23;19919;-79
2022/04/22 03:15:09;;;;;;;;;;;;;;;;;;2574534;23;19947;-79
2022/04/22 03:16:09;;;;;;;;;;;;;;;;;;2569980;23;19915;-79
2022/04/22 03:17:09;;;;;;;;;;;;;;;;;;2574119;23;19994;-79
2022/04/22 03:18:10;;;;;;;;;;;;;;;;;;2574303;23;19914;-79
2022/04/22 03:19:11;;;;;;;;;;;;;;;;;;2574875;23;20392;-79
2022/04/22 03:20:11;;;;;;;;;;;;;;;;;;2569874;23;19998;-79
2022/04/22 03:21:11;;;;;;;;;;;;;;;;;;2574171;23;19908;-79
2022/04/22 03:22:11;;;;;;;;;;;;;;;;;;2574674;23;19912;-79
2022/04/22 03:23:12;;;;;;;;;;;;;;;;;;2574510;23;19908;-80
2022/04/22 03:24:14;;;;;;;;;;;;;;;;;;2574506;23;19970;-78
2022/04/22 03:25:20;;;;;;;;;;;;;;;;;;2574558;23;19932;-78
2022/04/22 03:26:20;;;;;;;;;;;;;;;;;;2574647;23;19954;-78
2022/04/22 03:27:20;;;;;;;;;;;;;;;;;;2574647;23;19907;-78
2022/04/22 03:28:23;;;;;;;;;;;;;;;;;;2569759;23;19908;-78
2022/04/22 03:29:26;;;;;;;;;;;;;;;;;;2557676;23;20005;-77
2022/04/22 03:30:26;;;;;;;;;;;;;;;;;;2557885;23;19916;-79
2022/04/22 03:31:26;;;;;;;;;;;;;;;;;;2557292;23;19936;-77
2022/04/22 03:32:27;;;;;;;;;;;;;;;;;;2573679;23;20323;-77
2022/04/22 03:33:29;;;;;;;;;;;;;;;;;;2569789;23;19950;-78
2022/04/22 03:34:32;;;;;;;;;;;;;;;;;;2573974;23;19908;-78
2022/04/22 03:35:33;;;;;;;;;;;;;;;;;;2569955;23;19942;-78
2022/04/22 03:36:34;;;;;;;;;;;;;;;;;;2557234;23;20423;-78
2022/04/22 03:37:34;;;;;;;;;;;;;;;;;;2573942;23;19936;-78
2022/04/22 03:38:35;;;;;;;;;;;;;;;;;;2574298;23;19974;-78
2022/04/22 03:39:36;;;;;;;;;;;;;;;;;;2574582;23;19911;-78
2022/04/22 03:40:36;;;;;;;;;;;;;;;;;;2574291;23;20424;-80
2022/04/22 03:41:39;;;;;;;;;;;;;;;;;;2574185;23;19974;-78
2022/04/22 03:42:41;;;;;;;;;;;;;;;;;;2574006;23;19963;-80
2022/04/22 03:43:41;;;;;;;;;;;;;;;;;;2568874;23;19974;-78
2022/04/22 03:44:42;;;;;;;;;;;;;;;;;;2573823;23;19943;-78
2022/04/22 03:45:42;;;;;;;;;;;;;;;;;;2571894;23;19912;-80
2022/04/22 03:46:42;;;;;;;;;;;;;;;;;;2569401;23;19983;-78
2022/04/22 03:47:43;;;;;;;;;;;;;;;;;;2557221;23;20324;-80
2022/04/22 03:48:46;;;;;;;;;;;;;;;;;;2569691;23;19986;-79
2022/04/22 03:49:49;;;;;;;;;;;;;;;;;;2569741;23;19939;-79
2022/04/22 03:50:49;;;;;;;;;;;;;;;;;;2573912;23;20035;-79
2022/04/22 03:51:52;;;;;;;;;;;;;;;;;;2574423;23;19966;-79
2022/04/22 03:52:52;;;;;;;;;;;;;;;;;;2569628;23;20327;-79
2022/04/22 03:53:53;;;;;;;;;;;;;;;;;;2569550;23;19935;-79
2022/04/22 03:54:53;;;;;;;;;;;;;;;;;;2569674;23;19944;-79
2022/04/22 03:55:54;;;;;;;;;;;;;;;;;;2573923;23;20310;-79
2022/04/22 03:58:16;;;;;;;;;;;;;;;;;;2574188;23;19982;-79
2022/04/22 03:59:17;;;;;;;;;;;;;;;;;;2569449;23;19986;-79
2022/04/22 04:00:17;;;;;;;;;;;;;;;;;;2573933;23;19907;-80
2022/04/22 04:01:17;;;;;;;;;;;;;;;;;;2574156;23;19935;-79
2022/04/22 04:02:17;;;;;;;;;;;;;;;;;;2574103;23;20319;-79
2022/04/22 04:03:18;;;;;;;;;;;;;;;;;;2569376;23;19997;-80
2022/04/22 04:04:19;;;;;;;;;;;;;;;;;;2557476;23;19912;-79
2022/04/22 04:05:22;;;;;;;;;;;;;;;;;;2573692;23;19908;-79
2022/04/22 04:06:23;;;;;;;;;;;;;;;;;;2569770;23;19911;-80
2022/04/22 04:07:23;;;;;;;;;;;;;;;;;;2557133;23;19944;-79
2022/04/22 04:08:24;;;;;;;;;;;;;;;;;;2573797;23;19908;-80
2022/04/22 04:15:59;;;;;;;;;;;;;;;;;;2574456;23;19908;-80
2022/04/22 04:17:02;;;;;;;;;;;;;;;;;;2569405;23;19994;-80
2022/04/22 04:18:03;;;;;;;;;;;;;;;;;;2569593;23;20381;-79
2022/04/22 04:23:15;;;;;;;;;;;;;;;;;;2573844;23;19915;-79
2022/04/22 04:24:15;;;;;;;;;;;;;;;;;;2569403;23;19986;-79
2022/04/22 04:25:16;;;;;;;;;;;;;;;;;;2557224;23;19912;-80
2022/04/22 04:26:16;;;;;;;;;;;;;;;;;;2573751;23;19978;-80
2022/04/22 04:27:17;;;;;;;;;;;;;;;;;;2573645;23;19908;-80
2022/04/22 04:28:17;;;;;;;;;;;;;;;;;;2568818;23;19931;-80
2022/04/22 04:29:18;;;;;;;;;;;;;;;;;;2557285;23;20268;-80
2022/04/22 04:30:19;;;;;;;;;;;;;;;;;;2569684;23;19916;-80
2022/04/22 04:31:20;;;;;;;;;;;;;;;;;;2570837;23;20493;-78
2022/04/22 04:32:20;;;;;;;;;;;;;;;;;;2574940;23;19914;-79
2022/04/22 04:33:21;;;;;;;;;;;;;;;;;;2570232;23;19908;-79
2022/04/22 04:34:21;;;;;;;;;;;;;;;;;;2574468;23;20250;-80
2022/04/22 04:35:22;;;;;;;;;;;;;;;;;;2574517;23;20483;-79
2022/04/22 04:36:22;;;;;;;;;;;;;;;;;;2574386;23;19969;-79
2022/04/22 04:37:25;;;;;;;;;;;;;;;;;;2574887;23;19977;-79
2022/04/22 04:38:26;;;;;;;;;;;;;;;;;;2570081;23;19908;-79
2022/04/22 04:39:26;;;;;;;;;;;;;;;;;;2572985;23;19922;-79
2022/04/22 04:40:26;;;;;;;;;;;;;;;;;;2570077;23;19916;-79
2022/04/22 04:41:28;;;;;;;;;;;;;;;;;;2574471;23;19975;-79
2022/04/22 04:42:28;;;;;;;;;;;;;;;;;;2575090;23;20302;-80
2022/04/22 04:43:28;;;;;;;;;;;;;;;;;;2574877;23;19918;-79
2022/04/22 04:44:28;;;;;;;;;;;;;;;;;;2575044;23;20228;-79
2022/04/22 04:45:29;;;;;;;;;;;;;;;;;;2575071;23;19907;-79
2022/04/22 04:46:32;;;;;;;;;;;;;;;;;;2570578;23;20525;-79
2022/04/22 04:47:50;;;;;;;;;;;;;;;;;;2558249;23;19939;-79
2022/04/22 04:48:50;;;;;;;;;;;;;;;;;;2560694;23;19915;-80
2022/04/22 04:49:52;;;;;;;;;;;;;;;;;;2573758;23;19908;-79
2022/04/22 04:50:55;;;;;;;;;;;;;;;;;;2574415;23;19907;-79
2022/04/22 04:51:55;;;;;;;;;;;;;;;;;;2569723;23;19994;-79
2022/04/22 04:52:55;;;;;;;;;;;;;;;;;;2573796;23;19957;-79
2022/04/22 04:53:55;;;;;;;;;;;;;;;;;;2569438;23;20257;-79
2022/04/22 04:54:58;;;;;;;;;;;;;;;;;;2573686;23;19982;-79
2022/04/22 04:55:59;;;;;;;;;;;;;;;;;;2574143;23;19939;-80
2022/04/22 04:56:59;;;;;;;;;;;;;;;;;;2574486;23;19943;-79
2022/04/22 04:57:59;;;;;;;;;;;;;;;;;;2582415;22;19908;-79
2022/04/22 04:59:00;;;;;;;;;;;;;;;;;;2586684;23;20335;-79
2022/04/22 05:00:00;;;;;;;;;;;;;;;;;;2574780;23;19915;-79
2022/04/22 05:01:01;;;;;;;;;;;;;;;;;;2574390;23;19915;-79
2022/04/22 05:02:01;;;;;;;;;;;;;;;;;;2573923;23;20506;-79
2022/04/22 05:03:02;;;;;;;;;;;;;;;;;;2574600;23;19943;-79
2022/04/22 05:04:02;;;;;;;;;;;;;;;;;;2570800;23;19916;-79
2022/04/22 05:05:06;;;;;;;;;;;;;;;;;;2570702;23;20006;-79
2022/04/22 05:06:08;;;;;;;;;;;;;;;;;;2573986;23;19908;-80
2022/04/22 05:07:09;;;;;;;;;;;;;;;;;;2569420;23;20251;-78
2022/04/22 05:08:10;;;;;;;;;;;;;;;;;;2573428;23;20156;-78
2022/04/22 05:14:35;;;;;;;;;;;;;;;;;;;;;
2022/04/22 05:19:48;;;;;;;;;;;;;;;;;;;;;
2022/04/22 05:22:36;;;;;;;;;;;;;;;;;;2458957;24;19911;-80
2022/04/22 05:24:45;;;;;;;;;;;;;;;;;;;;;
2022/04/22 05:34:33;;;;;;;;;;;;;;;;;;2608346;22;19918;-79
2022/04/22 05:35:34;;;;;;;;;;;;;;;;;;2612389;22;19922;-79
2022/04/22 05:36:34;;;;;;;;;;;;;;;;;;2612769;22;20274;-79
2022/04/22 05:37:58;;;;;;;;;;;;;;;;;;2612544;22;20298;-79
2022/04/22 05:39:01;;;;;;;;;;;;;;;;;;2586645;23;19907;-79
2022/04/22 05:40:01;;;;;;;;;;;;;;;;;;2570536;23;19935;-79
2022/04/22 05:41:04;;;;;;;;;;;;;;;;;;2586409;23;19908;-78
2022/04/22 05:42:07;;;;;;;;;;;;;;;;;;2600224;22;19935;-79
2022/04/22 05:43:10;;;;;;;;;;;;;;;;;;2599913;22;19981;-78
2022/04/22 05:44:18;;;;;;;;;;;;;;;;;;2582677;23;19907;-79
2022/04/22 05:45:19;;;;;;;;;;;;;;;;;;2588665;22;19962;-79
2022/04/22 05:46:22;;;;;;;;;;;;;;;;;;2582136;23;20088;-79
2022/04/22 05:47:25;;;;;;;;;;;;;;;;;;2582775;22;19911;-79
2022/04/22 05:48:27;;;;;;;;;;;;;;;;;;2582342;22;19907;-79
2022/04/22 05:49:36;;;;;;;;;;;;;;;;;;2587229;22;20216;-79
2022/04/22 05:50:57;;;;;;;;;;;;;;;;;;2582626;23;19999;-79
2022/04/22 05:52:20;;;;;;;;;;;;;;;;;;2586208;22;19908;-79
2022/04/22 05:54:51;;;;;;;;;;;;;;;;;;2595710;22;20284;-80
2022/04/22 05:55:57;;;;;;;;;;;;;;;;;;2600231;22;19908;-80
2022/04/22 05:57:01;;;;;;;;;;;;;;;;;;2595990;22;19907;-80
2022/04/22 05:58:18;;;;;;;;;;;;;;;;;;2595058;22;19908;-79
2022/04/22 05:59:21;;;;;;;;;;;;;;;;;;2599100;22;20313;-79
2022/04/22 06:00:23;;;;;;;;;;;;;;;;;;2598817;22;19969;-80
2022/04/22 06:01:26;;;;;;;;;;;;;;;;;;2594795;22;19911;-80
2022/04/22 06:02:43;;;;;;;;;;;;;;;;;;2599735;22;19911;-80
2022/04/22 06:03:52;;;;;;;;;;;;;;;;;;2599618;22;19915;-80
2022/04/22 06:04:54;;;;;;;;;;;;;;;;;;2599007;22;19940;-80
2022/04/22 06:06:00;;;;;;;;;;;;;;;;;;2581968;23;19990;-79
2022/04/22 06:07:10;;;;;;;;;;;;;;;;;;2583311;22;19912;-79
2022/04/22 06:10:58;;;;;;;;;;;;;;;;;;2599885;22;19936;-80
2022/04/22 06:11:58;;;;;;;;;;;;;;;;;;2586508;23;19907;-80
2022/04/22 06:12:59;;;;;;;;;;;;;;;;;;2582206;23;19977;-80
2022/04/22 06:14:02;;;;;;;;;;;;;;;;;;2599525;22;19926;-79
2022/04/22 06:15:07;;;;;;;;;;;;;;;;;;2600285;22;19907;-79
2022/04/22 06:16:10;;;;;;;;;;;;;;;;;;2599769;22;20244;-79
2022/04/22 06:17:18;;;;;;;;;;;;;;;;;;2599609;22;19911;-79
2022/04/22 06:18:18;;;;;;;;;;;;;;;;;;2584837;23;19922;-80
2022/04/22 06:20:51;;;;;;;;;;;;;;;;;;2578974;22;20498;-80
2022/04/22 06:21:52;;;;;;;;;;;;;;;;;;2585370;23;19911;-80
2022/04/22 06:22:52;;;;;;;;;;;;;;;;;;2586308;23;20338;-80
2022/04/22 06:24:14;;;;;;;;;;;;;;;;;;;;;
2022/04/22 06:25:32;;;;;;;;;;;;;;;;;;2599930;22;20266;-80
2022/04/22 06:26:33;;;;;;;;;;;;;;;;;;2582137;23;19940;-80
2022/04/22 06:27:53;;;;;;;;;;;;;;;;;;2586147;23;20006;-80
2022/04/22 06:28:56;;;;;;;;;;;;;;;;;;2599897;22;19907;-80
2022/04/22 06:30:13;;;;;;;;;;;;;;;;;;2599270;22;19946;-80
2022/04/22 06:31:20;;;;;;;;;;;;;;;;;;2599689;22;20293;-80
2022/04/22 06:32:54;;;;;;;;;;;;;;;;;;2586689;23;19912;-80
2022/04/22 06:35:38;;;;;;;;;;;;;;;;;;2597273;22;19942;-80
2022/04/22 06:36:46;;;;;;;;;;;;;;;;;;2599637;22;19912;-80
2022/04/22 06:38:27;;;;;;;;;;;;;;;;;;2599085;22;19907;-80
2022/04/22 06:45:46;;;;;;;;;;;;;;;;;;2605898;22;19915;-80
2022/04/22 06:46:19;;;;;;;;;;;;;;;;;;2599477;22;19978;-80
2022/04/22 06:47:22;;;;;;;;;;;;;;;;;;2599739;22;19922;-80
2022/04/22 06:48:32;;;;;;;;;;;;;;;;;;2598769;22;19907;-80
2022/04/22 06:49:41;;;;;;;;;;;;;;;;;;2607355;22;19907;-81
2022/04/22 06:51:02;;;;;;;;;;;;;;;;;;2610327;22;19907;-80
2022/04/22 06:52:09;;;;;;;;;;;;;;;;;;2601848;22;20365;-80
2022/04/22 06:54:39;;;;;;;;;;;;;;;;;;2584003;22;19907;-80
2022/04/22 06:55:44;;;;;;;;;;;;;;;;;;2605375;22;19925;-80
2022/04/22 06:56:45;;;;;;;;;;;;;;;;;;2610828;22;19968;-80
2022/04/22 06:57:49;;;;;;;;;;;;;;;;;;2606821;22;20221;-80
2022/04/22 06:58:50;;;;;;;;;;;;;;;;;;2611371;22;20237;-80
2022/04/22 06:59:51;;;;;;;;;;;;;;;;;;2595299;22;19911;-80
2022/04/22 07:00:53;;;;;;;;;;;;;;;;;;2599515;22;19914;-79
2022/04/22 07:01:57;;;;;;;;;;;;;;;;;;2599736;22;19994;-79
2022/04/22 07:02:57;;;;;;;;;;;;;;;;;;2599859;22;19911;-80
2022/04/22 07:04:01;;;;;;;;;;;;;;;;;;2599548;22;20060;-80
2022/04/22 07:05:09;;;;;;;;;;;;;;;;;;2599664;22;20327;-80
2022/04/22 07:06:09;;;;;;;;;;;;;;;;;;2606840;22;20329;-80
2022/04/22 07:07:12;;;;;;;;;;;;;;;;;;2611074;22;19919;-79
2022/04/22 07:08:13;;;;;;;;;;;;;;;;;;2599711;22;20310;-78
2022/04/22 07:09:13;;;;;;;;;;;;;;;;;;2599219;22;19918;-78
2022/04/22 07:10:21;;;;;;;;;;;;;;;;;;2598827;22;19950;-81
2022/04/22 07:11:30;;;;;;;;;;;;;;;;;;2599065;22;19943;-79
2022/04/22 07:12:33;;;;;;;;;;;;;;;;;;2596364;22;20341;-81
2022/04/22 07:13:34;;;;;;;;;;;;;;;;;;2607313;22;19911;-78
2022/04/22 07:14:35;;;;;;;;;;;;;;;;;;2611280;22;19907;-79
2022/04/22 07:15:39;;;;;;;;;;;;;;;;;;2593983;22;20019;-80
2022/04/22 07:16:48;;;;;;;;;;;;;;;;;;2595969;22;19938;-80
2022/04/22 07:17:48;;;;;;;;;;;;;;;;;;2605704;22;19945;-79
2022/04/22 07:18:55;;;;;;;;;;;;;;;;;;2611848;22;19915;-80
2022/04/22 07:19:55;;;;;;;;;;;;;;;;;;2599208;22;19918;-79
2022/04/22 07:21:04;;;;;;;;;;;;;;;;;;2599305;22;19907;-80
2022/04/22 07:22:06;;;;;;;;;;;;;;;;;;2599073;22;19939;-80
2022/04/22 07:23:17;;;;;;;;;;;;;;;;;;2598246;22;19911;-82
2022/04/22 07:24:22;;;;;;;;;;;;;;;;;;2598737;22;19965;-81
2022/04/22 07:25:22;;;;;;;;;;;;;;;;;;2599426;22;19907;-81
2022/04/22 07:26:23;;;;;;;;;;;;;;;;;;2599231;22;20267;-80
2022/04/22 07:27:27;;;;;;;;;;;;;;;;;;2599198;22;19915;-81
2022/04/22 07:28:27;;;;;;;;;;;;;;;;;;2599302;22;20331;-80
2022/04/22 07:29:31;;;;;;;;;;;;;;;;;;2595139;22;19912;-80
2022/04/22 07:30:33;;;;;;;;;;;;;;;;;;2598572;22;19915;-80
2022/04/22 07:31:34;;;;;;;;;;;;;;;;;;2594273;22;20437;-81
2022/04/22 07:32:37;;;;;;;;;;;;;;;;;;2594137;22;19907;-80
2022/04/22 07:33:37;;;;;;;;;;;;;;;;;;2605903;22;19910;-81
2022/04/22 07:34:38;;;;;;;;;;;;;;;;;;2606665;22;19968;-81
2022/04/22 07:35:39;;;;;;;;;;;;;;;;;;2593622;22;20310;-81
2022/04/22 07:36:40;;;;;;;;;;;;;;;;;;2598557;22;19990;-80
2022/04/22 07:37:47;;;;;;;;;;;;;;;;;;2599078;22;20246;-80
2022/04/22 07:38:48;;;;;;;;;;;;;;;;;;2606637;22;20310;-80
2022/04/22 07:39:51;;;;;;;;;;;;;;;;;;2606789;22;19907;-80
2022/04/22 07:40:56;;;;;;;;;;;;;;;;;;2598236;22;19907;-81
2022/04/22 07:41:56;;;;;;;;;;;;;;;;;;2599152;22;19911;-81
2022/04/22 07:47:09;;;;;;;;;;;;;;;;;;2599858;22;19907;-80
2022/04/22 07:48:26;;;;;;;;;;;;;;;;;;2595776;22;20461;-81
2022/04/22 07:49:29;;;;;;;;;;;;;;;;;;2599046;22;19908;-80
2022/04/22 07:50:32;;;;;;;;;;;;;;;;;;2595232;22;19908;-80
2022/04/22 07:51:32;;;;;;;;;;;;;;;;;;2611944;22;19907;-80
2022/04/22 07:52:33;;;;;;;;;;;;;;;;;;2607492;22;19947;-81
2022/04/22 07:53:42;;;;;;;;;;;;;;;;;;2607257;22;19938;-81
2022/04/22 07:54:52;;;;;;;;;;;;;;;;;;2607497;22;20354;-81
2022/04/22 07:55:56;;;;;;;;;;;;;;;;;;2611723;22;19968;-81
2022/04/22 07:56:56;;;;;;;;;;;;;;;;;;2594886;22;20314;-80
2022/04/22 07:57:57;;;;;;;;;;;;;;;;;;2599113;22;19926;-80
2022/04/22 07:58:57;;;;;;;;;;;;;;;;;;2599717;22;19915;-81
2022/04/22 08:00:00;;;;;;;;;;;;;;;;;;2599491;22;19919;-80
2022/04/22 08:01:02;;;;;;;;;;;;;;;;;;2599711;22;19911;-80
2022/04/22 08:02:03;;;;;;;;;;;;;;;;;;2600054;22;20288;-80
2022/04/22 08:03:07;;;;;;;;;;;;;;;;;;2598815;22;19989;-80
2022/04/22 08:04:09;;;;;;;;;;;;;;;;;;2599399;22;19926;-79
2022/04/22 08:05:11;;;;;;;;;;;;;;;;;;2595692;22;19930;-80
2022/04/22 08:06:12;;;;;;;;;;;;;;;;;;2595757;22;19907;-81
2022/04/22 08:07:12;;;;;;;;;;;;;;;;;;2612808;22;19907;-80
2022/04/22 08:08:14;;;;;;;;;;;;;;;;;;2600284;22;19911;-80
2022/04/22 08:09:15;;;;;;;;;;;;;;;;;;2601018;22;19968;-79
2022/04/22 08:10:15;;;;;;;;;;;;;;;;;;2600455;22;19961;-80
2022/04/22 08:11:15;;;;;;;;;;;;;;;;;;2595280;22;19907;-80
2022/04/22 08:12:18;;;;;;;;;;;;;;;;;;2600146;22;19922;-80